KCLW/CLW METAR and TAF weather

Enter ICAO airport designator
Station Type Date Time Source
KCLW METAR 2021/09/16 21:55 UTC NOAA

KCLW 162155Z AUTO 00000KT 10SM SCT055 SCT080 27/23 A2997 RMK AO2


Station Type Date Time Source
KCLW Decoded METAR 2021/09/16 21:55 UTC NOAA

Station name not available
Sep 16, 2021 - 05:55 PM EDT / 2021.09.16 2155 UTC
Wind: Calm:0
Visibility: 10 mile(s):0
Sky conditions: partly cloudy
Temperature: 80 F (27 C)
Dew Point: 73 F (23 C)
Relative Humidity: 78%
Pressure (altimeter): 29.97 in. Hg (1014 hPa)
ob: KCLW 162155Z AUTO 00000KT 10SM SCT055 SCT080 27/23 A2997 RMK AO2
cycle: 22

Station Type Date Time Source
KCLW TAF UTC NOAA

Error!

Example: see airport list